sensor_id;sensor_type;location;lat;lon;timestamp;temperature;humidity
18281;DHT22;9266;51.132;17.062;2022-09-09T06:54:56;23.20;1.00
18281;DHT22;9266;51.132;17.062;2022-09-09T06:57:24;22.80;1.00
18281;DHT22;9266;51.132;17.062;2022-09-09T06:59:51;22.40;1.00
18281;DHT22;9266;51.132;17.062;2022-09-09T07:02:18;22.00;1.00
18281;DHT22;9266;51.132;17.062;2022-09-09T07:04:45;22.30;1.00
18281;DHT22;9266;51.132;17.062;2022-09-09T07:07:12;22.90;1.00
18281;DHT22;9266;51.132;17.062;2022-09-09T07:09:41;24.10;1.00
18281;DHT22;9266;51.132;17.062;2022-09-09T07:12:09;24.70;99.90
18281;DHT22;9266;51.132;17.062;2022-09-09T07:14:36;24.40;99.90
18281;DHT22;9266;51.132;17.062;2022-09-09T07:17:03;24.00;99.90
18281;DHT22;9266;51.132;17.062;2022-09-09T07:19:30;25.40;99.90
18281;DHT22;9266;51.132;17.062;2022-09-09T07:21:57;26.00;1.00
18281;DHT22;9266;51.132;17.062;2022-09-09T07:24:24;26.10;1.00
18281;DHT22;9266;51.132;17.062;2022-09-09T07:26:51;26.10;1.00
18281;DHT22;9266;51.132;17.062;2022-09-09T07:29:19;26.00;99.90
18281;DHT22;9266;51.132;17.062;2022-09-09T07:31:46;25.80;99.90
18281;DHT22;9266;51.132;17.062;2022-09-09T07:34:13;25.50;99.90
18281;DHT22;9266;51.132;17.062;2022-09-09T07:36:41;25.80;1.00
18281;DHT22;9266;51.132;17.062;2022-09-09T07:39:10;26.50;99.90
18281;DHT22;9266;51.132;17.062;2022-09-09T07:41:40;26.70;99.90
18281;DHT22;9266;51.132;17.062;2022-09-09T07:44:09;26.10;99.90
18281;DHT22;9266;51.132;17.062;2022-09-09T07:46:39;26.10;99.90
18281;DHT22;9266;51.132;17.062;2022-09-09T07:49:07;26.60;99.90
18281;DHT22;9266;51.132;17.062;2022-09-09T07:51:37;25.80;99.90
18281;DHT22;9266;51.132;17.062;2022-09-09T07:54:06;25.70;99.90
18281;DHT22;9266;51.132;17.062;2022-09-09T07:56:33;25.20;99.90
18281;DHT22;9266;51.132;17.062;2022-09-09T07:59:01;25.90;99.90
18281;DHT22;9266;51.132;17.062;2022-09-09T08:01:31;26.20;99.90
18281;DHT22;9266;51.132;17.062;2022-09-09T08:04:03;25.60;99.90
18281;DHT22;9266;51.132;17.062;2022-09-09T08:06:35;25.30;99.90
18281;DHT22;9266;51.132;17.062;2022-09-09T08:09:03;24.20;99.90
18281;DHT22;9266;51.132;17.062;2022-09-09T08:11:32;24.50;99.90
18281;DHT22;9266;51.132;17.062;2022-09-09T08:14:01;25.10;99.90
18281;DHT22;9266;51.132;17.062;2022-09-09T08:16:31;25.10;89.80
18281;DHT22;9266;51.132;17.062;2022-09-09T08:19:01;24.70;99.90
18281;DHT22;9266;51.132;17.062;2022-09-09T08:21:29;24.90;99.90
18281;DHT22;9266;51.132;17.062;2022-09-09T08:23:58;25.40;77.50
18281;DHT22;9266;51.132;17.062;2022-09-09T08:26:27;26.10;65.70
18281;DHT22;9266;51.132;17.062;2022-09-09T08:28:55;26.00;1.00
18281;DHT22;9266;51.132;17.062;2022-09-09T08:31:25;26.00;1.00
18281;DHT22;9266;51.132;17.062;2022-09-09T08:33:53;25.90;1.00
18281;DHT22;9266;51.132;17.062;2022-09-09T08:36:24;25.60;1.00
18281;DHT22;9266;51.132;17.062;2022-09-09T08:38:52;25.50;1.00
18281;DHT22;9266;51.132;17.062;2022-09-09T08:41:37;25.30;1.00
18281;DHT22;9266;51.132;17.062;2022-09-09T08:44:10;24.50;1.00
18281;DHT22;9266;51.132;17.062;2022-09-09T08:46:46;24.40;1.00
18281;DHT22;9266;51.132;17.062;2022-09-09T08:49:24;24.70;1.00
18281;DHT22;9266;51.132;17.062;2022-09-09T08:52:12;26.30;1.00
18281;DHT22;9266;51.132;17.062;2022-09-09T08:54:41;24.40;1.00
18281;DHT22;9266;51.132;17.062;2022-09-09T08:57:14;24.60;1.00
18281;DHT22;9266;51.132;17.062;2022-09-09T08:59:43;24.10;1.00
18281;DHT22;9266;51.132;17.062;2022-09-09T09:02:17;23.70;1.00
18281;DHT22;9266;51.132;17.062;2022-09-09T09:04:58;23.80;1.00
18281;DHT22;9266;51.132;17.062;2022-09-09T09:07:40;23.60;1.00
18281;DHT22;9266;51.132;17.062;2022-09-09T09:10:15;23.70;1.00
18281;DHT22;9266;51.132;17.062;2022-09-09T09:12:44;23.90;1.00
18281;DHT22;9266;51.132;17.062;2022-09-09T09:15:19;24.10;1.00
18281;DHT22;9266;51.132;17.062;2022-09-09T09:17:47;23.60;1.00
18281;DHT22;9266;51.132;17.062;2022-09-09T09:20:16;23.10;1.00
18281;DHT22;9266;51.132;17.062;2022-09-09T09:22:49;22.80;1.00
18281;DHT22;9266;51.132;17.062;2022-09-09T09:25:18;23.00;3.70
18281;DHT22;9266;51.132;17.062;2022-09-09T09:27:52;23.20;6.30
18281;DHT22;9266;51.132;17.062;2022-09-09T09:30:25;22.90;1.00
18281;DHT22;9266;51.132;17.062;2022-09-09T09:32:58;22.80;1.00
18281;DHT22;9266;51.132;17.062;2022-09-09T09:35:26;22.90;8.20
18281;DHT22;9266;51.132;17.062;2022-09-09T09:37:55;22.70;12.70
18281;DHT22;9266;51.132;17.062;2022-09-09T09:40:22;22.90;62.10
18281;DHT22;9266;51.132;17.062;2022-09-09T09:42:53;23.10;97.30
18281;DHT22;9266;51.132;17.062;2022-09-09T09:45:28;23.20;66.30
18281;DHT22;9266;51.132;17.062;2022-09-09T09:48:01;23.40;45.40
18281;DHT22;9266;51.132;17.062;2022-09-09T09:50:29;23.50;40.10
18281;DHT22;9266;51.132;17.062;2022-09-09T09:53:00;23.70;1.00
18281;DHT22;9266;51.132;17.062;2022-09-09T09:55:31;23.60;1.00
18281;DHT22;9266;51.132;17.062;2022-09-09T09:58:04;23.50;1.00
18281;DHT22;9266;51.132;17.062;2022-09-09T10:00:32;23.60;24.50
18281;DHT22;9266;51.132;17.062;2022-09-09T10:03:02;23.60;16.20
18281;DHT22;9266;51.132;17.062;2022-09-09T10:05:46;23.50;1.00
18281;DHT22;9266;51.132;17.062;2022-09-09T10:08:16;23.60;12.60
18281;DHT22;9266;51.132;17.062;2022-09-09T10:10:55;23.60;1.00
18281;DHT22;9266;51.132;17.062;2022-09-09T10:13:29;23.70;5.60
18281;DHT22;9266;51.132;17.062;2022-09-09T10:16:09;24.00;1.00
18281;DHT22;9266;51.132;17.062;2022-09-09T10:18:45;24.20;1.00
18281;DHT22;9266;51.132;17.062;2022-09-09T10:21:24;24.00;1.00
18281;DHT22;9266;51.132;17.062;2022-09-09T10:24:12;23.60;1.00
18281;DHT22;9266;51.132;17.062;2022-09-09T10:26:47;23.80;1.00
18281;DHT22;9266;51.132;17.062;2022-09-09T10:29:30;23.70;1.00
18281;DHT22;9266;51.132;17.062;2022-09-09T10:32:20;23.80;1.00
18281;DHT22;9266;51.132;17.062;2022-09-09T10:34:56;23.70;1.00
18281;DHT22;9266;51.132;17.062;2022-09-09T10:37:39;23.70;1.00
18281;DHT22;9266;51.132;17.062;2022-09-09T10:40:24;23.70;1.00
18281;DHT22;9266;51.132;17.062;2022-09-09T10:43:07;24.00;1.00
18281;DHT22;9266;51.132;17.062;2022-09-09T10:45:45;24.10;1.00
18281;DHT22;9266;51.132;17.062;2022-09-09T10:51:22;24.10;1.00
18281;DHT22;9266;51.132;17.062;2022-09-09T10:54:04;23.90;1.00
18281;DHT22;9266;51.132;17.062;2022-09-09T10:56:34;23.90;1.00
18281;DHT22;9266;51.132;17.062;2022-09-09T10:59:06;23.90;1.00
18281;DHT22;9266;51.132;17.062;2022-09-09T11:01:39;23.80;1.00
18281;DHT22;9266;51.132;17.062;2022-09-09T11:04:10;24.20;1.00
18281;DHT22;9266;51.132;17.062;2022-09-09T11:06:41;23.70;1.00
18281;DHT22;9266;51.132;17.062;2022-09-09T11:09:15;23.70;1.00
18281;DHT22;9266;51.132;17.062;2022-09-09T11:11:49;23.70;1.00
18281;DHT22;9266;51.132;17.062;2022-09-09T11:14:22;24.00;1.00
18281;DHT22;9266;51.132;17.062;2022-09-09T11:16:52;24.00;1.00
18281;DHT22;9266;51.132;17.062;2022-09-09T11:19:26;24.00;1.00
18281;DHT22;9266;51.132;17.062;2022-09-09T11:21:55;23.90;1.00
18281;DHT22;9266;51.132;17.062;2022-09-09T11:24:26;23.80;1.00
18281;DHT22;9266;51.132;17.062;2022-09-09T11:27:01;23.60;1.00
18281;DHT22;9266;51.132;17.062;2022-09-09T11:29:51;23.70;1.00
18281;DHT22;9266;51.132;17.062;2022-09-09T11:32:47;24.00;1.00
18281;DHT22;9266;51.132;17.062;2022-09-09T11:35:30;24.40;1.00
18281;DHT22;9266;51.132;17.062;2022-09-09T11:38:17;24.30;1.00
18281;DHT22;9266;51.132;17.062;2022-09-09T11:40:45;24.50;1.00
18281;DHT22;9266;51.132;17.062;2022-09-09T11:43:17;24.50;1.00
18281;DHT22;9266;51.132;17.062;2022-09-09T11:45:51;24.50;1.00
18281;DHT22;9266;51.132;17.062;2022-09-09T11:48:26;24.60;1.00
18281;DHT22;9266;51.132;17.062;2022-09-09T11:51:00;24.50;1.00
18281;DHT22;9266;51.132;17.062;2022-09-09T11:53:28;24.50;1.00
18281;DHT22;9266;51.132;17.062;2022-09-09T11:56:12;24.80;1.00
18281;DHT22;9266;51.132;17.062;2022-09-09T11:58:54;24.60;1.00
18281;DHT22;9266;51.132;17.062;2022-09-09T12:01:29;24.40;1.00
18281;DHT22;9266;51.132;17.062;2022-09-09T12:04:13;24.50;1.00
18281;DHT22;9266;51.132;17.062;2022-09-09T12:06:43;24.60;1.00
18281;DHT22;9266;51.132;17.062;2022-09-09T12:09:22;24.80;1.00
18281;DHT22;9266;51.132;17.062;2022-09-09T12:11:50;24.90;1.00
18281;DHT22;9266;51.132;17.062;2022-09-09T12:14:34;25.00;1.00
18281;DHT22;9266;51.132;17.062;2022-09-09T12:17:10;24.90;1.00
18281;DHT22;9266;51.132;17.062;2022-09-09T12:19:44;25.10;1.00
18281;DHT22;9266;51.132;17.062;2022-09-09T12:22:19;25.20;1.00
18281;DHT22;9266;51.132;17.062;2022-09-09T12:24:53;25.10;1.00
18281;DHT22;9266;51.132;17.062;2022-09-09T12:27:27;25.00;1.00
18281;DHT22;9266;51.132;17.062;2022-09-09T12:30:02;25.00;1.00
18281;DHT22;9266;51.132;17.062;2022-09-09T12:32:30;25.20;1.00
18281;DHT22;9266;51.132;17.062;2022-09-09T12:34:59;25.50;1.00
18281;DHT22;9266;51.132;17.062;2022-09-09T12:37:32;25.30;1.00
18281;DHT22;9266;51.132;17.062;2022-09-09T12:40:02;25.20;1.00
18281;DHT22;9266;51.132;17.062;2022-09-09T12:42:30;25.30;1.00
18281;DHT22;9266;51.132;17.062;2022-09-09T12:45:01;25.40;1.00
18281;DHT22;9266;51.132;17.062;2022-09-09T12:47:37;25.20;1.00
18281;DHT22;9266;51.132;17.062;2022-09-09T12:50:16;24.80;1.00
18281;DHT22;9266;51.132;17.062;2022-09-09T12:52:45;24.80;1.00
18281;DHT22;9266;51.132;17.062;2022-09-09T12:55:18;25.00;1.00
18281;DHT22;9266;51.132;17.062;2022-09-09T12:57:48;25.00;1.00
18281;DHT22;9266;51.132;17.062;2022-09-09T13:00:20;24.70;1.00
18281;DHT22;9266;51.132;17.062;2022-09-09T13:02:50;24.20;1.00
18281;DHT22;9266;51.132;17.062;2022-09-09T13:05:20;24.80;1.00
18281;DHT22;9266;51.132;17.062;2022-09-09T13:07:48;25.20;1.00
18281;DHT22;9266;51.132;17.062;2022-09-09T13:10:22;24.90;1.00
18281;DHT22;9266;51.132;17.062;2022-09-09T13:12:49;24.70;1.00
18281;DHT22;9266;51.132;17.062;2022-09-09T13:15:21;24.70;1.00
18281;DHT22;9266;51.132;17.062;2022-09-09T13:17:52;24.80;1.00
18281;DHT22;9266;51.132;17.062;2022-09-09T13:20:21;24.90;1.00
18281;DHT22;9266;51.132;17.062;2022-09-09T13:22:51;25.00;1.00
18281;DHT22;9266;51.132;17.062;2022-09-09T13:25:22;25.00;1.00
18281;DHT22;9266;51.132;17.062;2022-09-09T13:27:57;25.20;1.00
18281;DHT22;9266;51.132;17.062;2022-09-09T13:30:29;25.30;1.00
18281;DHT22;9266;51.132;17.062;2022-09-09T13:33:05;25.20;1.00
18281;DHT22;9266;51.132;17.062;2022-09-09T13:35:33;24.20;1.00
18281;DHT22;9266;51.132;17.062;2022-09-09T13:38:07;24.80;1.00
18281;DHT22;9266;51.132;17.062;2022-09-09T13:40:35;24.40;1.00
18281;DHT22;9266;51.132;17.062;2022-09-09T13:43:03;24.30;1.00
18281;DHT22;9266;51.132;17.062;2022-09-09T13:45:32;24.00;1.00
18281;DHT22;9266;51.132;17.062;2022-09-09T13:48:09;23.80;1.00
18281;DHT22;9266;51.132;17.062;2022-09-09T13:50:37;23.80;1.00
18281;DHT22;9266;51.132;17.062;2022-09-09T13:53:04;23.70;1.00
18281;DHT22;9266;51.132;17.062;2022-09-09T13:55:31;23.80;1.00
18281;DHT22;9266;51.132;17.062;2022-09-09T13:58:00;24.00;1.00
18281;DHT22;9266;51.132;17.062;2022-09-09T14:00:29;24.70;1.00
18281;DHT22;9266;51.132;17.062;2022-09-09T14:02:58;24.40;1.00
18281;DHT22;9266;51.132;17.062;2022-09-09T14:05:27;24.30;1.00
18281;DHT22;9266;51.132;17.062;2022-09-09T14:07:55;24.20;1.00
18281;DHT22;9266;51.132;17.062;2022-09-09T14:10:22;24.20;1.00
18281;DHT22;9266;51.132;17.062;2022-09-09T14:12:49;24.20;1.00
18281;DHT22;9266;51.132;17.062;2022-09-09T14:15:16;24.20;1.00
18281;DHT22;9266;51.132;17.062;2022-09-09T14:17:45;24.20;1.00
18281;DHT22;9266;51.132;17.062;2022-09-09T14:20:15;24.00;1.00
18281;DHT22;9266;51.132;17.062;2022-09-09T14:22:43;24.00;1.00
18281;DHT22;9266;51.132;17.062;2022-09-09T14:25:11;24.00;1.00
18281;DHT22;9266;51.132;17.062;2022-09-09T14:27:39;24.00;1.00
18281;DHT22;9266;51.132;17.062;2022-09-09T14:30:06;24.00;1.00
18281;DHT22;9266;51.132;17.062;2022-09-09T14:32:34;24.10;1.00
18281;DHT22;9266;51.132;17.062;2022-09-09T14:35:01;24.10;1.00
18281;DHT22;9266;51.132;17.062;2022-09-09T14:37:29;24.10;1.00
18281;DHT22;9266;51.132;17.062;2022-09-09T14:39:57;24.10;1.00
18281;DHT22;9266;51.132;17.062;2022-09-09T14:42:24;24.00;1.00
18281;DHT22;9266;51.132;17.062;2022-09-09T14:44:52;24.00;1.00
18281;DHT22;9266;51.132;17.062;2022-09-09T14:47:19;24.20;1.00
18281;DHT22;9266;51.132;17.062;2022-09-09T14:49:46;24.30;1.00
18281;DHT22;9266;51.132;17.062;2022-09-09T14:52:15;24.30;1.00
18281;DHT22;9266;51.132;17.062;2022-09-09T14:54:44;24.40;1.00
18281;DHT22;9266;51.132;17.062;2022-09-09T14:57:13;24.30;1.00
18281;DHT22;9266;51.132;17.062;2022-09-09T14:59:40;24.20;1.00
18281;DHT22;9266;51.132;17.062;2022-09-09T15:02:08;24.30;1.00
18281;DHT22;9266;51.132;17.062;2022-09-09T15:04:37;24.20;1.00
18281;DHT22;9266;51.132;17.062;2022-09-09T15:07:06;24.00;1.00
18281;DHT22;9266;51.132;17.062;2022-09-09T15:09:33;23.90;1.00
18281;DHT22;9266;51.132;17.062;2022-09-09T15:12:02;23.90;1.00
18281;DHT22;9266;51.132;17.062;2022-09-09T15:14:30;24.00;1.00
18281;DHT22;9266;51.132;17.062;2022-09-09T15:16:57;23.90;1.00
18281;DHT22;9266;51.132;17.062;2022-09-09T15:19:24;23.80;1.00
18281;DHT22;9266;51.132;17.062;2022-09-09T15:21:51;23.60;1.00
18281;DHT22;9266;51.132;17.062;2022-09-09T15:24:20;23.60;1.00
18281;DHT22;9266;51.132;17.062;2022-09-09T15:26:48;23.50;1.00
18281;DHT22;9266;51.132;17.062;2022-09-09T15:29:16;23.50;1.00
18281;DHT22;9266;51.132;17.062;2022-09-09T15:31:44;23.50;1.00
18281;DHT22;9266;51.132;17.062;2022-09-09T15:34:12;23.50;1.00
18281;DHT22;9266;51.132;17.062;2022-09-09T15:36:42;23.60;1.00
18281;DHT22;9266;51.132;17.062;2022-09-09T15:39:11;23.70;1.00
18281;DHT22;9266;51.132;17.062;2022-09-09T15:41:41;23.70;1.00
18281;DHT22;9266;51.132;17.062;2022-09-09T15:44:09;23.60;1.00
18281;DHT22;9266;51.132;17.062;2022-09-09T15:46:40;23.50;1.00
18281;DHT22;9266;51.132;17.062;2022-09-09T15:49:10;23.40;1.00
18281;DHT22;9266;51.132;17.062;2022-09-09T15:51:39;23.30;1.00
18281;DHT22;9266;51.132;17.062;2022-09-09T15:54:08;23.20;1.00
18281;DHT22;9266;51.132;17.062;2022-09-09T15:56:35;23.00;1.00
18281;DHT22;9266;51.132;17.062;2022-09-09T15:59:03;23.10;1.00
18281;DHT22;9266;51.132;17.062;2022-09-09T16:01:31;23.00;1.00
18281;DHT22;9266;51.132;17.062;2022-09-09T16:04:00;22.90;1.00
18281;DHT22;9266;51.132;17.062;2022-09-09T16:06:29;22.90;1.00
18281;DHT22;9266;51.132;17.062;2022-09-09T16:08:57;22.70;1.00
18281;DHT22;9266;51.132;17.062;2022-09-09T16:11:27;22.70;1.00
18281;DHT22;9266;51.132;17.062;2022-09-09T16:13:55;22.60;1.00
18281;DHT22;9266;51.132;17.062;2022-09-09T16:16:24;22.60;1.00
18281;DHT22;9266;51.132;17.062;2022-09-09T16:18:53;22.50;1.00
18281;DHT22;9266;51.132;17.062;2022-09-09T16:21:23;22.50;1.00
18281;DHT22;9266;51.132;17.062;2022-09-09T16:23:52;22.40;1.00
18281;DHT22;9266;51.132;17.062;2022-09-09T16:26:20;22.40;1.00
18281;DHT22;9266;51.132;17.062;2022-09-09T16:28:47;22.40;1.00
18281;DHT22;9266;51.132;17.062;2022-09-09T16:31:18;22.30;1.00
18281;DHT22;9266;51.132;17.062;2022-09-09T16:33:45;22.30;1.00
18281;DHT22;9266;51.132;17.062;2022-09-09T16:36:16;22.20;1.00
18281;DHT22;9266;51.132;17.062;2022-09-09T16:38:45;22.10;1.00
18281;DHT22;9266;51.132;17.062;2022-09-09T16:41:13;22.00;1.00
18281;DHT22;9266;51.132;17.062;2022-09-09T16:43:41;21.90;1.00
18281;DHT22;9266;51.132;17.062;2022-09-09T16:46:13;21.80;1.00
18281;DHT22;9266;51.132;17.062;2022-09-09T16:48:42;21.70;1.00
18281;DHT22;9266;51.132;17.062;2022-09-09T16:51:14;21.70;29.50
18281;DHT22;9266;51.132;17.062;2022-09-09T16:53:44;21.60;95.50
18281;DHT22;9266;51.132;17.062;2022-09-09T16:56:13;21.60;99.90
18281;DHT22;9266;51.132;17.062;2022-09-09T16:58:41;21.50;99.90
18281;DHT22;9266;51.132;17.062;2022-09-09T17:01:11;21.40;99.90
18281;DHT22;9266;51.132;17.062;2022-09-09T17:03:40;21.40;99.90
18281;DHT22;9266;51.132;17.062;2022-09-09T17:06:09;21.40;99.90
18281;DHT22;9266;51.132;17.062;2022-09-09T17:08:38;21.30;99.90
18281;DHT22;9266;51.132;17.062;2022-09-09T17:11:13;21.30;99.90
18281;DHT22;9266;51.132;17.062;2022-09-09T17:13:41;21.20;99.90
18281;DHT22;9266;51.132;17.062;2022-09-09T17:16:09;21.20;99.90
18281;DHT22;9266;51.132;17.062;2022-09-09T17:18:37;21.10;99.90
18281;DHT22;9266;51.132;17.062;2022-09-09T17:21:06;21.00;99.90
18281;DHT22;9266;51.132;17.062;2022-09-09T17:23:34;21.00;1.00
18281;DHT22;9266;51.132;17.062;2022-09-09T17:26:04;21.00;1.00
18281;DHT22;9266;51.132;17.062;2022-09-09T17:28:35;21.00;1.00
18281;DHT22;9266;51.132;17.062;2022-09-09T17:31:03;20.90;1.00
18281;DHT22;9266;51.132;17.062;2022-09-09T17:33:32;20.80;1.00
18281;DHT22;9266;51.132;17.062;2022-09-09T17:36:02;20.80;1.00
18281;DHT22;9266;51.132;17.062;2022-09-09T17:38:32;20.70;1.00
18281;DHT22;9266;51.132;17.062;2022-09-09T17:41:03;20.60;1.00
18281;DHT22;9266;51.132;17.062;2022-09-09T17:43:32;20.50;1.00
18281;DHT22;9266;51.132;17.062;2022-09-09T17:46:07;20.50;1.00
18281;DHT22;9266;51.132;17.062;2022-09-09T17:48:34;20.40;1.00
18281;DHT22;9266;51.132;17.062;2022-09-09T17:51:03;20.40;1.00
18281;DHT22;9266;51.132;17.062;2022-09-09T17:53:31;20.30;99.90
18281;DHT22;9266;51.132;17.062;2022-09-09T17:56:02;20.30;99.90
18281;DHT22;9266;51.132;17.062;2022-09-09T17:58:29;20.20;99.90
18281;DHT22;9266;51.132;17.062;2022-09-09T18:01:02;20.20;1.00
18281;DHT22;9266;51.132;17.062;2022-09-09T18:03:31;20.10;1.00
18281;DHT22;9266;51.132;17.062;2022-09-09T18:06:00;20.00;1.00
18281;DHT22;9266;51.132;17.062;2022-09-09T18:08:28;20.00;1.00
18281;DHT22;9266;51.132;17.062;2022-09-09T18:10:55;19.90;39.70
18281;DHT22;9266;51.132;17.062;2022-09-09T18:13:23;19.80;99.90
18281;DHT22;9266;51.132;17.062;2022-09-09T18:15:50;19.80;99.90
18281;DHT22;9266;51.132;17.062;2022-09-09T18:18:17;19.70;99.90
18281;DHT22;9266;51.132;17.062;2022-09-09T18:20:46;19.70;1.00
18281;DHT22;9266;51.132;17.062;2022-09-09T18:23:22;19.60;1.00
18281;DHT22;9266;51.132;17.062;2022-09-09T18:25:49;19.60;1.00
18281;DHT22;9266;51.132;17.062;2022-09-09T18:28:16;19.50;1.00
18281;DHT22;9266;51.132;17.062;2022-09-09T18:30:45;19.50;1.00
18281;DHT22;9266;51.132;17.062;2022-09-09T18:33:13;19.40;99.90
18281;DHT22;9266;51.132;17.062;2022-09-09T18:35:40;19.50;99.90
18281;DHT22;9266;51.132;17.062;2022-09-09T18:38:09;19.40;99.90
18281;DHT22;9266;51.132;17.062;2022-09-09T18:40:37;19.30;1.00
18281;DHT22;9266;51.132;17.062;2022-09-09T18:43:04;19.30;1.00
18281;DHT22;9266;51.132;17.062;2022-09-09T18:45:35;19.40;1.00
18281;DHT22;9266;51.132;17.062;2022-09-09T18:48:03;19.30;1.00
18281;DHT22;9266;51.132;17.062;2022-09-09T18:50:30;19.30;1.00
18281;DHT22;9266;51.132;17.062;2022-09-09T18:52:57;19.30;1.00
18281;DHT22;9266;51.132;17.062;2022-09-09T18:55:25;19.30;1.00
18281;DHT22;9266;51.132;17.062;2022-09-09T18:57:54;19.20;1.00
18281;DHT22;9266;51.132;17.062;2022-09-09T19:00:24;18.70;1.00
18281;DHT22;9266;51.132;17.062;2022-09-09T19:02:54;19.20;1.00
18281;DHT22;9266;51.132;17.062;2022-09-09T19:05:21;19.10;1.00
18281;DHT22;9266;51.132;17.062;2022-09-09T19:07:48;19.10;98.50
18281;DHT22;9266;51.132;17.062;2022-09-09T19:10:15;19.10;99.90
18281;DHT22;9266;51.132;17.062;2022-09-09T19:12:44;19.10;99.90
18281;DHT22;9266;51.132;17.062;2022-09-09T19:15:11;19.00;99.90
18281;DHT22;9266;51.132;17.062;2022-09-09T19:17:38;19.00;1.00
18281;DHT22;9266;51.132;17.062;2022-09-09T19:20:06;18.90;1.00
18281;DHT22;9266;51.132;17.062;2022-09-09T19:22:34;18.90;1.00
18281;DHT22;9266;51.132;17.062;2022-09-09T19:25:01;18.80;1.00
18281;DHT22;9266;51.132;17.062;2022-09-09T19:27:29;18.80;1.00
18281;DHT22;9266;51.132;17.062;2022-09-09T19:29:58;18.80;99.90
18281;DHT22;9266;51.132;17.062;2022-09-09T19:32:26;18.90;1.00
18281;DHT22;9266;51.132;17.062;2022-09-09T19:34:52;19.00;1.00
18281;DHT22;9266;51.132;17.062;2022-09-09T19:37:20;19.00;1.00
18281;DHT22;9266;51.132;17.062;2022-09-09T19:39:48;19.00;1.00
18281;DHT22;9266;51.132;17.062;2022-09-09T19:42:16;18.90;1.00
18281;DHT22;9266;51.132;17.062;2022-09-09T19:44:43;18.90;1.00
18281;DHT22;9266;51.132;17.062;2022-09-09T19:47:12;18.80;1.00
18281;DHT22;9266;51.132;17.062;2022-09-09T19:49:40;18.80;1.00
18281;DHT22;9266;51.132;17.062;2022-09-09T19:52:07;18.80;1.00
18281;DHT22;9266;51.132;17.062;2022-09-09T19:54:34;18.80;99.90
18281;DHT22;9266;51.132;17.062;2022-09-09T19:57:01;18.70;99.90
18281;DHT22;9266;51.132;17.062;2022-09-09T19:59:29;18.70;99.90
18281;DHT22;9266;51.132;17.062;2022-09-09T20:01:56;18.60;99.90
18281;DHT22;9266;51.132;17.062;2022-09-09T20:04:25;18.60;1.00
18281;DHT22;9266;51.132;17.062;2022-09-09T20:06:52;18.50;1.00
18281;DHT22;9266;51.132;17.062;2022-09-09T20:09:20;18.40;99.90
18281;DHT22;9266;51.132;17.062;2022-09-09T20:11:50;18.40;1.00
18281;DHT22;9266;51.132;17.062;2022-09-09T20:14:17;18.40;1.00
18281;DHT22;9266;51.132;17.062;2022-09-09T20:16:45;18.40;99.90
18281;DHT22;9266;51.132;17.062;2022-09-09T20:19:14;18.50;99.90
18281;DHT22;9266;51.132;17.062;2022-09-09T20:21:44;18.50;99.90
18281;DHT22;9266;51.132;17.062;2022-09-09T20:24:14;18.60;1.00
18281;DHT22;9266;51.132;17.062;2022-09-09T20:26:42;18.80;99.90
18281;DHT22;9266;51.132;17.062;2022-09-09T20:29:12;18.80;1.00
18281;DHT22;9266;51.132;17.062;2022-09-09T20:31:40;18.80;9.50
18281;DHT22;9266;51.132;17.062;2022-09-09T20:34:10;18.80;46.60
18281;DHT22;9266;51.132;17.062;2022-09-09T20:36:38;18.80;99.90
18281;DHT22;9266;51.132;17.062;2022-09-09T20:39:09;18.70;99.90
18281;DHT22;9266;51.132;17.062;2022-09-09T20:41:38;18.70;99.90
18281;DHT22;9266;51.132;17.062;2022-09-09T20:44:08;18.70;1.00
18281;DHT22;9266;51.132;17.062;2022-09-09T20:46:39;18.70;1.00
18281;DHT22;9266;51.132;17.062;2022-09-09T20:49:08;18.70;1.00
18281;DHT22;9266;51.132;17.062;2022-09-09T20:51:35;18.60;1.00
18281;DHT22;9266;51.132;17.062;2022-09-09T20:54:05;18.60;1.00
18281;DHT22;9266;51.132;17.062;2022-09-09T20:56:35;18.50;1.00
18281;DHT22;9266;51.132;17.062;2022-09-09T20:59:04;18.50;99.90
18281;DHT22;9266;51.132;17.062;2022-09-09T21:01:31;18.50;99.90
18281;DHT22;9266;51.132;17.062;2022-09-09T21:03:58;18.30;1.00
18281;DHT22;9266;51.132;17.062;2022-09-09T21:06:26;18.30;1.00
18281;DHT22;9266;51.132;17.062;2022-09-09T21:08:53;18.20;99.90
18281;DHT22;9266;51.132;17.062;2022-09-09T21:11:21;18.30;1.00
18281;DHT22;9266;51.132;17.062;2022-09-09T21:13:50;18.20;99.90
18281;DHT22;9266;51.132;17.062;2022-09-09T21:16:17;18.20;1.00
18281;DHT22;9266;51.132;17.062;2022-09-09T21:18:46;18.20;99.90
18281;DHT22;9266;51.132;17.062;2022-09-09T21:21:13;18.20;1.00
18281;DHT22;9266;51.132;17.062;2022-09-09T21:23:41;18.20;1.00
18281;DHT22;9266;51.132;17.062;2022-09-09T21:26:08;18.30;80.30
18281;DHT22;9266;51.132;17.062;2022-09-09T21:28:36;18.20;1.00
18281;DHT22;9266;51.132;17.062;2022-09-09T21:31:05;18.20;1.00
18281;DHT22;9266;51.132;17.062;2022-09-09T21:33:33;18.20;1.00
18281;DHT22;9266;51.132;17.062;2022-09-09T21:36:02;18.00;1.00
18281;DHT22;9266;51.132;17.062;2022-09-09T21:38:30;17.70;1.00
18281;DHT22;9266;51.132;17.062;2022-09-09T21:41:01;17.50;99.90
18281;DHT22;9266;51.132;17.062;2022-09-09T21:43:29;17.30;99.90
18281;DHT22;9266;51.132;17.062;2022-09-09T21:45:56;17.10;1.00
18281;DHT22;9266;51.132;17.062;2022-09-09T21:48:25;16.90;1.00
18281;DHT22;9266;51.132;17.062;2022-09-09T21:50:52;16.80;1.00
18281;DHT22;9266;51.132;17.062;2022-09-09T21:53:20;16.70;26.60
18281;DHT22;9266;51.132;17.062;2022-09-09T21:55:47;16.60;1.00
18281;DHT22;9266;51.132;17.062;2022-09-09T21:58:15;16.60;99.90
18281;DHT22;9266;51.132;17.062;2022-09-09T22:00:44;16.50;93.40
18281;DHT22;9266;51.132;17.062;2022-09-09T22:03:12;16.40;99.90
18281;DHT22;9266;51.132;17.062;2022-09-09T22:05:42;16.30;99.90
18281;DHT22;9266;51.132;17.062;2022-09-09T22:08:11;16.30;99.90
18281;DHT22;9266;51.132;17.062;2022-09-09T22:10:40;16.30;99.90
18281;DHT22;9266;51.132;17.062;2022-09-09T22:13:07;16.30;99.90
18281;DHT22;9266;51.132;17.062;2022-09-09T22:15:34;16.30;99.90
18281;DHT22;9266;51.132;17.062;2022-09-09T22:18:02;16.30;99.90
18281;DHT22;9266;51.132;17.062;2022-09-09T22:20:31;16.40;99.90
18281;DHT22;9266;51.132;17.062;2022-09-09T22:23:00;16.40;99.90
18281;DHT22;9266;51.132;17.062;2022-09-09T22:25:27;16.50;99.90
18281;DHT22;9266;51.132;17.062;2022-09-09T22:27:58;16.50;99.90
18281;DHT22;9266;51.132;17.062;2022-09-09T22:30:25;16.40;99.90
18281;DHT22;9266;51.132;17.062;2022-09-09T22:32:53;16.40;99.90
18281;DHT22;9266;51.132;17.062;2022-09-09T22:35:20;16.40;99.90
18281;DHT22;9266;51.132;17.062;2022-09-09T22:37:47;16.40;99.90
18281;DHT22;9266;51.132;17.062;2022-09-09T22:40:16;16.40;99.90
18281;DHT22;9266;51.132;17.062;2022-09-09T22:42:44;16.40;99.90
18281;DHT22;9266;51.132;17.062;2022-09-09T22:45:11;16.30;99.90
18281;DHT22;9266;51.132;17.062;2022-09-09T22:47:38;16.30;99.90
18281;DHT22;9266;51.132;17.062;2022-09-09T22:50:08;16.30;99.90
18281;DHT22;9266;51.132;17.062;2022-09-09T22:52:36;16.30;99.90
18281;DHT22;9266;51.132;17.062;2022-09-09T22:55:04;16.30;99.90
18281;DHT22;9266;51.132;17.062;2022-09-09T22:57:34;16.30;99.90